Latest Weather Observations for Blackall

IDQ60801

Issued at 5:32 pm EST Sunday 5 July 2015 (issued every 30 minutes, with the page automatically refreshed every 10 minutes)

About weather observations | Map of weather stations | Latest weather observations for QLD | Other Formats
Station Details ID: 036034 Name: BLACKALL AIRPORT Lat: -24.43 Lon: 145.43 Height: 281.3 m
Data from the previous 72 hours. | See also: Recent months at Blackall
Date/Time
EST
Temp
°C
App
Temp
°C
Dew
Point
Rel
Hum
%
Delta-T
°C
Wind Press
QNH
hPa
Press
MSL
hPa
Rain
since 9 am
mm
Dir
 
Spd
km/h
Gust
km/h
Spd
kts
Gust
kts
05/05:30pm 22.1 21.0 5.1 33 8.5 CALM 0 0 0 0 1018.5 1018.2 0.0
05/05:00pm 22.9 21.0 4.9 31 9.0 NE 4 9 2 5 1018.4 1018.1 0.0
05/04:30pm 23.7 21.8 5.1 30 9.4 NE 4 9 2 5 1018.4 1018.1 0.0
05/04:00pm 23.7 21.2 4.6 29 9.6 NE 7 11 4 6 1018.4 1018.1 0.0
05/03:30pm 24.0 21.3 5.4 30 9.5 N 9 19 5 10 1018.6 1018.3 0.0
05/03:00pm 23.6 21.7 5.0 30 9.4 SSE 4 9 2 5 1018.7 1018.4 0.0
05/02:30pm 23.6 20.8 5.0 30 9.4 NNW 9 17 5 9 1018.8 1018.5 0.0
05/02:00pm 24.3 22.8 6.6 32 9.3 WSW 4 15 2 8 1018.9 1018.6 0.0
05/01:30pm 23.1 20.7 5.1 31 9.1 NE 7 13 4 7 1019.1 1018.8 0.0
05/01:00pm 23.5 20.6 6.3 33 8.9 NNW 11 17 6 9 1019.4 1019.1 0.0
05/12:30pm 23.1 20.5 6.0 33 8.8 N 9 24 5 13 1019.8 1019.5 0.0
05/12:00pm 22.9 20.0 6.6 35 8.4 N 11 19 6 10 1020.4 1020.2 0.0
05/11:30am 22.0 18.2 5.8 35 8.2 N 15 28 8 15 1020.7 1020.5 0.0
05/11:00am 21.5 17.9 8.4 43 7.0 NNE 17 26 9 14 1021.1 1020.9 0.0
05/10:30am 20.9 16.9 9.2 47 6.3 NNE 20 32 11 17 1021.4 1021.2 0.0
05/10:00am 18.4 14.9 8.9 54 5.0 NNE 17 24 9 13 1021.4 1021.2 0.0
05/09:30am 16.3 12.9 7.8 57 4.3 NNE 15 19 8 10 1021.7 1021.4 0.0
05/09:00am 13.9 11.1 5.3 56 4.1 ENE 9 11 5 6 1021.8 1021.5 0.0
05/08:30am 11.4 8.7 2.9 56 3.7 E 6 7 3 4 1021.5 1021.3 0.0
05/08:00am 8.9 5.8 1.3 59 3.2 SE 7 9 4 5 1021.2 1021.0 0.0
05/07:30am 6.8 3.8 0.9 66 2.4 SSE 6 9 3 5 1021.0 1020.8 0.0
05/07:00am 6.3 3.1 0.6 67 2.3 SE 7 11 4 6 1020.9 1020.7 0.0
05/06:30am 5.9 2.5 -0.4 64 2.4 SE 7 9 4 5 1020.6 1020.4 0.0
05/06:00am 6.2 2.9 -0.1 64 2.5 SSE 7 9 4 5 1020.2 1020.0 0.0
05/05:30am 5.4 2.0 -0.6 65 2.3 SE 7 9 4 5 1019.6 1019.3 0.0
05/05:00am 6.5 3.1 -0.5 61 2.7 ESE 7 9 4 5 1019.5 1019.2 0.0
05/04:30am 6.5 2.7 -0.7 60 2.8 ESE 9 9 5 5 1019.7 1019.4 0.0
05/04:00am 6.7 3.4 -1.0 58 3.0 SE 6 7 3 4 1019.6 1019.3 0.0
05/03:30am 7.0 3.7 -0.9 57 3.1 SSE 6 7 3 4 1019.8 1019.5 0.0
05/03:00am 6.4 2.6 -1.0 59 2.8 SE 9 13 5 7 1019.9 1019.7 0.0
05/02:30am 7.4 3.9 -1.0 55 3.3 SSE 7 9 4 5 1020.0 1019.8 0.0
05/02:00am 7.8 4.0 -0.9 54 3.4 SSE 9 11 5 6 1020.1 1019.9 0.0
05/01:30am 8.3 4.9 -0.7 53 3.6 SE 7 9 4 5 1020.2 1020.0 0.0
05/01:00am 8.0 4.2 -0.5 55 3.3 ESE 9 11 5 6 1020.1 1019.9 0.0
05/12:30am 7.0 3.1 -1.2 56 3.2 SE 9 11 5 6 1020.3 1020.1 0.0
05/12:00am 7.2 3.3 -1.5 54 3.3 SSE 9 9 5 5 1020.3 1020.1 0.0
 
Date/Time
EST
Temp
°C
App
Temp
°C
Dew
Point
Rel
Hum
%
Delta-T
°C
Wind Press
QNH
hPa
Press
MSL
hPa
Rain
since 9 am
mm
Dir
 
Spd
km/h
Gust
km/h
Spd
kts
Gust
kts
04/11:30pm 7.4 3.5 -1.5 53 3.4 SSE 9 11 5 6 1020.5 1020.3 0.0
04/11:00pm 8.4 5.1 -1.4 50 3.8 SE 6 9 3 5 1020.7 1020.5 0.0
04/10:30pm 8.7 4.7 -2.0 47 4.1 SE 9 11 5 6 1020.6 1020.4 0.0
04/10:00pm 10.9 7.9 -1.5 42 4.9 NE 4 7 2 4 1020.6 1020.4 0.0
04/09:30pm 12.9 9.0 -1.8 36 5.9 ESE 9 13 5 7 1020.6 1020.4 0.0
04/09:00pm 13.5 9.2 -1.6 35 6.1 SE 11 15 6 8 1020.5 1020.3 0.0
04/08:30pm 14.6 10.3 -1.5 33 6.7 SSE 11 13 6 7 1020.7 1020.5 0.0
04/08:00pm 14.7 10.4 -1.4 33 6.7 SSE 11 13 6 7 1020.5 1020.3 0.0
04/07:30pm 14.8 10.6 -0.9 34 6.6 S 11 13 6 7 1020.2 1020.0 0.0
04/07:00pm 13.9 10.4 -1.7 34 6.4 SSW 7 9 4 5 1019.9 1019.7 0.0
04/06:30pm 14.7 11.2 -1.4 33 6.7 SSW 7 9 4 5 1019.6 1019.3 0.0
04/06:00pm 16.7 14.5 -1.9 28 7.8 CALM 0 0 0 0 1019.2 1018.9 0.0
04/05:30pm 20.1 17.8 -2.3 22 9.6 CALM 0 0 0 0 1018.9 1018.6 0.0
04/05:00pm 21.5 19.1 -3.1 19 10.5 CALM 0 6 0 3 1018.7 1018.4 0.0
04/04:30pm 22.5 19.4 -3.0 18 11.0 N 4 9 2 5 1018.5 1018.2 0.0
04/04:00pm 22.3 19.5 -3.1 18 10.9 ENE 2 13 1 7 1018.5 1018.2 0.0
04/03:30pm 22.6 19.8 -2.9 18 11.0 WNW 2 7 1 4 1018.5 1018.2 0.0
04/03:00pm 22.1 18.4 -2.6 19 10.7 NE 7 15 4 8 1018.6 1018.3 0.0
04/02:30pm 21.9 19.3 -1.4 21 10.3 SSE 2 6 1 3 1018.6 1018.3 0.0
04/02:00pm 21.4 18.4 -1.8 21 10.1 N 4 13 2 7 1018.8 1018.5 0.0
04/01:30pm 21.1 18.2 -1.4 22 9.9 N 4 11 2 6 1019.3 1019.0 0.0
04/01:00pm 20.7 17.3 -0.6 24 9.5 ENE 7 13 4 7 1019.9 1019.7 0.0
04/12:30pm 19.7 16.0 -0.3 26 8.9 N 9 13 5 7 1020.5 1020.3 0.0
04/12:00pm 19.4 15.3 -0.1 27 8.7 NE 11 17 6 9 1021.1 1020.9 0.0
04/11:30am 18.7 14.0 0.8 30 8.1 NNE 15 20 8 11 1021.7 1021.4 0.0
04/11:00am 17.5 12.4 0.6 32 7.5 NE 17 22 9 12 1022.0 1021.7 0.0
04/10:30am 16.6 11.0 1.1 35 6.9 NE 20 28 11 15 1022.3 1022.0 0.0
04/10:00am 15.6 9.6 1.3 38 6.3 NE 22 26 12 14 1022.4 1022.1 0.0
04/09:30am 13.2 7.9 1.8 46 5.0 ENE 19 22 10 12 1022.5 1022.2 0.0
04/09:00am 11.3 7.1 1.8 52 4.1 ENE 13 17 7 9 1022.5 1022.2 0.0
04/08:30am 8.3 5.2 1.5 62 2.8 E 7 9 4 5 1022.4 1022.1 0.0
04/08:00am 5.3 3.5 1.1 74 1.7 CALM 0 0 0 0 1022.5 1022.2 0.0
04/07:30am 3.1 0.0 0.0 80 1.2 SE 6 7 3 4 1022.4 1022.1 0.0
04/07:00am 3.3 0.0 0.2 80 1.2 ESE 7 9 4 5 1022.2 1021.9 0.0
04/06:30am 3.4 0.2 1.0 84 0.9 ESE 7 9 4 5 1021.9 1021.6 0.0
04/06:00am 2.6 -1.2 -0.5 80 1.1 SE 9 9 5 5 1021.7 1021.4 0.0
04/05:30am 3.6 0.6 0.5 80 1.2 SE 6 7 3 4 1021.8 1021.5 0.0
04/05:00am 3.5 0.2 0.0 78 1.3 SE 7 7 4 4 1021.5 1021.3 0.0
04/04:30am 4.3 1.0 -0.1 73 1.7 ESE 7 9 4 5 1021.8 1021.5 0.0
04/04:00am 5.3 2.2 1.1 74 1.7 E 7 9 4 5 1021.9 1021.6 0.0
04/03:30am 5.0 1.8 0.6 73 1.7 ESE 7 9 4 5 1021.7 1021.4 0.0
04/03:00am 5.4 2.2 0.6 71 1.9 ESE 7 7 4 4 1021.7 1021.4 0.0
04/02:30am 6.1 2.5 0.9 69 2.1 SSE 9 11 5 6 1021.9 1021.6 0.0
04/02:00am 6.5 2.9 0.8 67 2.3 SE 9 11 5 6 1022.0 1021.7 0.0
04/01:30am 7.3 3.8 1.0 64 2.6 SSE 9 11 5 6 1022.2 1021.9 0.0
04/01:00am 8.0 4.9 1.2 62 2.8 SE 7 9 4 5 1022.2 1021.9 0.0
04/12:30am 9.0 5.1 1.4 59 3.2 SE 11 15 6 8 1022.1 1021.8 0.0
04/12:00am 9.3 4.7 1.5 58 3.3 SSE 15 19 8 10 1021.9 1021.6 0.0
 
Date/Time
EST
Temp
°C
App
Temp
°C
Dew
Point
Rel
Hum
%
Delta-T
°C
Wind Press
QNH
hPa
Press
MSL
hPa
Rain
since 9 am
mm
Dir
 
Spd
km/h
Gust
km/h
Spd
kts
Gust
kts
03/11:30pm 9.4 5.6 1.8 59 3.2 SSE 11 15 6 8 1022.1 1021.8 0.0
03/11:00pm 9.7 5.5 1.6 57 3.4 SSE 13 17 7 9 1022.2 1021.9 0.0
03/10:30pm 10.6 6.4 1.7 54 3.8 SSE 13 17 7 9 1022.5 1022.2 0.0
03/10:00pm 11.5 7.3 1.7 51 4.2 SE 13 17 7 9 1022.4 1022.1 0.0
03/09:30pm 12.3 8.1 1.6 48 4.6 SSE 13 17 7 9 1022.1 1021.8 0.0
03/09:00pm 12.7 8.5 1.7 47 4.8 SE 13 17 7 9 1022.2 1021.9 0.0
03/08:30pm 13.4 8.5 1.7 45 5.1 SE 17 20 9 11 1022.0 1021.7 0.0
03/08:00pm 14.1 9.5 1.7 43 5.5 SSE 15 20 8 11 1021.9 1021.6 0.0
03/07:30pm 14.7 9.8 1.9 42 5.7 SSE 17 22 9 12 1021.8 1021.5 0.0
03/07:00pm 15.0 10.8 1.9 41 5.8 SSE 13 17 7 9 1021.7 1021.4 0.0
03/06:30pm 14.8 11.0 2.0 42 5.7 S 11 13 6 7 1021.5 1021.3 0.0
03/06:00pm 15.9 12.5 1.6 38 6.4 SSE 9 13 5 7 1021.4 1021.2 0.0
03/05:30pm 17.2 13.0 1.6 35 7.1 SSE 13 19 7 10 1021.1 1020.9 0.0
03/05:00pm 17.9 13.0 1.8 34 7.3 SSE 17 22 9 12 1021.0 1020.8 0.0
03/04:30pm 18.4 13.4 1.4 32 7.7 SE 17 22 9 12 1020.7 1020.5 0.0
03/04:00pm 19.0 14.1 2.0 32 7.8 SE 17 22 9 12 1020.4 1020.2 0.0
03/03:30pm 18.9 13.9 1.4 31 8.0 SE 17 28 9 15 1020.4 1020.2 0.0
03/03:00pm 18.5 13.4 0.6 30 8.0 SE 17 22 9 12 1020.4 1020.2 0.0
03/02:30pm 18.3 13.3 1.3 32 7.7 SE 17 24 9 13 1020.6 1020.4 0.0
03/02:00pm 18.1 13.1 1.2 32 7.6 SE 17 24 9 13 1021.0 1020.8 0.0
03/01:30pm 17.7 13.2 2.1 35 7.2 SE 15 24 8 13 1021.4 1021.2 0.0
03/01:00pm 16.4 11.5 2.1 38 6.5 SE 17 24 9 13 1022.0 1021.7 0.0
03/12:30pm 15.5 10.2 1.6 39 6.2 SE 19 26 10 14 1022.7 1022.4 0.0
03/12:00pm 14.9 9.4 1.8 41 5.8 ESE 20 32 11 17 1023.3 1023.1 0.0
03/11:30am 14.3 8.5 2.5 45 5.3 ESE 22 32 12 17 1023.8 1023.6 0.0
03/11:00am 13.9 8.2 2.8 47 5.0 SE 22 30 12 16 1024.2 1024.0 0.0
03/10:30am 12.8 6.2 2.1 48 4.7 SE 26 35 14 19 1024.5 1024.3 0.0
03/10:00am 12.3 5.9 3.0 53 4.1 SE 26 43 14 23 1024.6 1024.4 0.0
03/09:30am 11.5 5.4 3.0 56 3.8 ESE 24 39 13 21 1024.5 1024.3 0.0
03/09:00am 10.2 4.1 3.0 61 3.1 SE 24 33 13 18 1024.3 1024.1 0.0
03/08:30am 9.3 4.2 3.3 66 2.6 SE 19 30 10 16 1024.2 1024.0 0.0
03/08:00am 8.4 3.2 3.3 70 2.2 SE 20 28 11 15 1023.9 1023.7 0.0
03/07:30am 7.9 2.6 3.0 71 2.1 SE 20 30 11 16 1023.6 1023.4 0.0
03/07:00am 7.1 3.5 3.0 75 1.7 SE 11 15 6 8 1023.5 1023.3 0.0
03/06:30am 8.0 3.7 3.5 73 2.0 SE 15 20 8 11 1023.1 1022.9 0.0
03/06:00am 8.1 3.9 3.8 74 1.9 SE 15 22 8 12 1022.9 1022.7 0.0
03/05:30am 8.1 3.9 3.8 74 1.9 SSE 15 24 8 13 1022.6 1022.3 0.0
03/05:00am 8.1 4.2 3.6 73 2.0 SSE 13 17 7 9 1022.4 1022.1 0.0
03/04:30am 8.3 4.1 3.8 73 2.0 SSE 15 20 8 11 1022.4 1022.1 0.0
03/04:00am 8.5 5.1 3.8 72 2.1 SSE 11 15 6 8 1022.6 1022.3 0.0
03/03:30am 9.1 4.9 3.9 70 2.3 SE 15 20 8 11 1022.8 1022.5 0.0
03/03:00am 9.7 4.8 4.1 68 2.5 SSE 19 28 10 15 1022.8 1022.5 0.0
03/02:30am 10.2 5.2 4.6 68 2.5 SSE 20 28 11 15 1022.9 1022.7 0.0
03/02:00am 10.3 5.9 4.9 69 2.5 SSE 17 24 9 13 1023.1 1022.9 0.0
03/01:30am 10.3 6.4 5.3 71 2.3 SSE 15 22 8 12 1023.4 1023.2 0.0
03/01:00am 10.6 7.1 5.6 71 2.3 SE 13 17 7 9 1023.7 1023.5 0.0
03/12:30am 11.0 7.1 5.3 68 2.7 SE 15 19 8 10 1023.8 1023.6 0.0
03/12:00am 11.8 8.0 5.7 66 2.9 SSE 15 20 8 11 1023.8 1023.6 0.0
 
Date/Time
EST
Temp
°C
App
Temp
°C
Dew
Point
Rel
Hum
%
Delta-T
°C
Wind Press
QNH
hPa
Press
MSL
hPa
Rain
since 9 am
mm
Dir
 
Spd
km/h
Gust
km/h
Spd
kts
Gust
kts
02/11:30pm 12.0 8.2 5.6 65 3.0 SSE 15 22 8 12 1024.0 1023.8 0.0
02/11:00pm 11.9 8.4 5.5 65 3.0 SSE 13 19 7 10 1024.1 1023.9 0.0
02/10:30pm 12.3 9.1 5.2 62 3.3 SSE 11 17 6 9 1024.2 1024.0 0.0
02/10:00pm 13.1 9.6 5.3 59 3.7 SSE 13 17 7 9 1024.3 1024.1 0.0
02/09:30pm 14.3 10.4 5.4 55 4.3 SSE 15 24 8 13 1024.3 1024.1 0.0
02/09:00pm 14.9 10.6 5.1 52 4.7 SSE 17 24 9 13 1024.2 1024.0 0.0
02/08:30pm 15.5 11.3 5.7 52 4.8 SSE 17 26 9 14 1024.0 1023.8 0.0
02/08:00pm 15.6 11.4 5.5 51 4.9 SSE 17 24 9 13 1023.7 1023.5 0.0
02/07:30pm 15.7 12.5 5.3 50 5.0 S 11 17 6 9 1023.5 1023.3 0.0
02/07:00pm 16.3 12.8 5.3 48 5.3 S 13 17 7 9 1023.0 1022.8 0.0
02/06:30pm 16.5 13.8 5.5 48 5.4 S 9 13 5 7 1022.7 1022.4 0.0
02/06:00pm 17.5 14.5 5.8 46 5.8 SSE 11 17 6 9 1022.3 1022.0 0.0

Other Formats:

Comma delimited format used in spreadsheet applications
http://www.bom.gov.au/fwo/IDQ60801/IDQ60801.95351.axf

JavaScript Object Notation format (JSON) in row-major order
http://www.bom.gov.au/fwo/IDQ60801/IDQ60801.95351.json